createdAt,value
2018-01-18T00:00:26.347Z,99.99
2018-01-18T00:01:26.308Z,99.99
2018-01-18T00:02:26.269Z,99.99
2018-01-18T00:03:26.249Z,99.99
2018-01-18T00:04:26.187Z,99.99
2018-01-18T00:05:26.146Z,99.99
2018-01-18T00:06:26.106Z,99.99
2018-01-18T00:07:26.069Z,99.99
2018-01-18T00:08:26.029Z,99.99
2018-01-18T00:09:25.986Z,99.99
2018-01-18T00:10:25.946Z,99.99
2018-01-18T00:11:25.908Z,99.99
2018-01-18T00:12:25.868Z,99.99
2018-01-18T00:13:25.825Z,99.99
2018-01-18T00:14:25.787Z,99.99
2018-01-18T00:15:25.748Z,99.99
2018-01-18T00:16:25.706Z,99.99
2018-01-18T00:17:25.665Z,99.99
2018-01-18T00:18:25.625Z,99.99
2018-01-18T00:19:25.587Z,99.99
2018-01-18T00:20:25.548Z,99.99
2018-01-18T00:21:25.505Z,99.99
2018-01-18T00:22:25.465Z,99.99
2018-01-18T00:23:25.423Z,99.99
2018-01-18T00:24:25.385Z,99.99
2018-01-18T00:25:25.360Z,99.99
2018-01-18T00:26:25.304Z,99.99
2018-01-18T00:27:25.268Z,99.99
2018-01-18T00:28:25.225Z,99.99
2018-01-18T00:29:25.184Z,99.99
2018-01-18T00:30:25.143Z,99.99
2018-01-18T00:31:25.103Z,99.99
2018-01-18T00:32:25.063Z,99.99
2018-01-18T00:33:25.140Z,99.99
2018-01-18T00:34:24.985Z,99.99
2018-01-18T00:35:24.948Z,99.99
2018-01-18T00:36:24.904Z,99.99
2018-01-18T00:37:24.863Z,99.99
2018-01-18T00:38:24.822Z,99.99
2018-01-18T00:39:24.786Z,99.99
2018-01-18T00:40:24.745Z,99.99
2018-01-18T00:41:24.700Z,99.99
2018-01-18T00:42:24.668Z,99.99
2018-01-18T00:43:24.624Z,99.99
2018-01-18T00:44:24.583Z,99.99
2018-01-18T00:45:24.595Z,99.99
2018-01-18T00:46:24.502Z,99.99
2018-01-18T00:47:24.463Z,99.99
2018-01-18T00:48:24.424Z,99.99
2018-01-18T00:49:24.380Z,99.99
2018-01-18T00:50:24.343Z,99.99
2018-01-18T00:51:24.303Z,99.99
2018-01-18T00:52:24.265Z,99.99
2018-01-18T00:53:24.223Z,99.99
2018-01-18T00:54:24.183Z,99.99
2018-01-18T00:55:24.143Z,99.99
2018-01-18T00:56:24.102Z,99.99
2018-01-18T00:57:24.063Z,99.99
2018-01-18T00:58:24.030Z,99.99
2018-01-18T00:59:23.980Z,99.99
2018-01-18T01:00:23.944Z,99.99
2018-01-18T01:01:23.937Z,99.99
2018-01-18T01:02:23.862Z,99.99
2018-01-18T01:03:23.822Z,99.99
2018-01-18T01:04:23.785Z,99.99
2018-01-18T01:05:23.743Z,99.99
2018-01-18T01:06:23.703Z,99.99
2018-01-18T01:07:23.661Z,99.99
2018-01-18T01:08:23.626Z,99.99
2018-01-18T01:09:23.585Z,99.99
2018-01-18T01:10:23.543Z,99.99
2018-01-18T01:11:23.504Z,99.99
2018-01-18T01:12:23.466Z,99.99
2018-01-18T01:13:23.427Z,99.99
2018-01-18T01:14:23.385Z,99.99
2018-01-18T01:15:23.345Z,99.99
2018-01-18T01:16:23.303Z,99.99
2018-01-18T01:17:23.260Z,99.99
2018-01-18T01:18:23.221Z,99.99
2018-01-18T01:19:23.183Z,99.99
2018-01-18T01:20:23.144Z,99.99
2018-01-18T01:21:23.104Z,99.99
2018-01-18T01:22:23.069Z,99.99
2018-01-18T01:23:23.021Z,99.99
2018-01-18T01:24:22.984Z,99.99
2018-01-18T01:25:22.940Z,99.99
2018-01-18T01:26:22.906Z,99.99
2018-01-18T01:27:22.870Z,99.99
2018-01-18T01:28:22.824Z,99.99
2018-01-18T01:29:22.782Z,99.99
2018-01-18T01:30:22.741Z,99.99
2018-01-18T01:31:22.700Z,99.99
2018-01-18T01:32:22.663Z,99.99
2018-01-18T01:33:22.632Z,99.99
2018-01-18T01:34:22.584Z,99.99
2018-01-18T01:35:22.544Z,99.99
2018-01-18T01:36:22.503Z,99.99
2018-01-18T01:37:22.472Z,99.99
2018-01-18T01:38:22.436Z,99.99
2018-01-18T01:39:22.381Z,99.99
2018-01-18T01:40:22.342Z,99.99
2018-01-18T01:41:22.300Z,99.99
2018-01-18T01:42:22.261Z,99.99
2018-01-18T01:43:22.234Z,99.99
2018-01-18T01:44:22.182Z,99.99
2018-01-18T01:45:22.142Z,99.99
2018-01-18T01:46:22.102Z,99.99
2018-01-18T01:47:22.061Z,99.99
2018-01-18T01:48:22.023Z,99.99
2018-01-18T01:49:21.983Z,99.99
2018-01-18T01:50:21.941Z,99.99
2018-01-18T01:51:21.903Z,99.99
2018-01-18T01:52:21.861Z,99.99
2018-01-18T01:53:21.821Z,99.99
2018-01-18T01:54:21.783Z,99.99
2018-01-18T01:55:21.744Z,99.99
2018-01-18T01:56:21.705Z,99.99
2018-01-18T01:57:21.665Z,99.99
2018-01-18T01:58:21.622Z,99.99
2018-01-18T01:59:21.581Z,99.99
2018-01-18T02:00:21.543Z,99.99
2018-01-18T02:01:21.502Z,99.99
2018-01-18T02:02:21.461Z,99.99
2018-01-18T02:03:21.421Z,99.99
2018-01-18T02:04:21.381Z,99.99
2018-01-18T02:05:21.343Z,99.99
2018-01-18T02:06:21.303Z,99.99
2018-01-18T02:07:21.260Z,99.99
2018-01-18T02:08:21.222Z,99.99
2018-01-18T02:09:21.183Z,99.99
2018-01-18T02:10:21.141Z,99.99
2018-01-18T02:11:21.102Z,99.99
2018-01-18T02:12:21.062Z,99.99
2018-01-18T02:13:21.042Z,99.99
2018-01-18T02:14:20.982Z,99.99
2018-01-18T02:15:20.942Z,99.99
2018-01-18T02:16:20.902Z,99.99
2018-01-18T02:17:20.862Z,99.99
2018-01-18T02:18:20.825Z,99.99
2018-01-18T02:19:20.781Z,99.99
2018-01-18T02:20:20.742Z,99.99
2018-01-18T02:21:20.704Z,99.99
2018-01-18T02:22:20.664Z,99.99
2018-01-18T02:23:20.632Z,99.99
2018-01-18T02:24:20.584Z,99.99
2018-01-18T02:25:20.543Z,99.99
2018-01-18T02:26:20.502Z,99.99
2018-01-18T02:27:20.466Z,99.99
2018-01-18T02:28:20.425Z,99.99
2018-01-18T02:29:20.384Z,99.99
2018-01-18T02:30:20.346Z,99.99
2018-01-18T02:31:20.307Z,99.99
2018-01-18T02:32:20.291Z,99.99
2018-01-18T02:33:20.224Z,99.99
2018-01-18T02:34:20.185Z,99.99
2018-01-18T02:35:20.145Z,99.99
2018-01-18T02:36:20.106Z,99.99
2018-01-18T02:37:20.067Z,99.99
2018-01-18T02:38:20.026Z,99.99
2018-01-18T02:39:19.984Z,99.99
2018-01-18T02:40:19.949Z,99.99
2018-01-18T02:41:19.906Z,99.99
2018-01-18T02:42:19.866Z,99.99
2018-01-18T02:43:19.827Z,99.99
2018-01-18T02:44:19.788Z,99.99
2018-01-18T02:45:19.744Z,99.99
2018-01-18T02:46:19.708Z,99.99
2018-01-18T02:47:19.669Z,99.99
2018-01-18T02:48:19.628Z,99.99
2018-01-18T02:49:19.586Z,99.99
2018-01-18T02:50:19.545Z,99.99
2018-01-18T02:51:19.508Z,99.99
2018-01-18T02:52:19.469Z,99.99
2018-01-18T02:53:19.429Z,99.99
2018-01-18T02:54:19.390Z,99.99
2018-01-18T02:55:19.349Z,99.99
2018-01-18T02:56:19.309Z,99.99
2018-01-18T02:57:19.269Z,99.99
2018-01-18T02:58:19.228Z,99.99
2018-01-18T02:59:19.192Z,99.99
2018-01-18T03:00:19.150Z,99.99
2018-01-18T03:01:19.107Z,99.99
2018-01-18T03:02:19.104Z,99.99
2018-01-18T03:03:19.028Z,99.99
2018-01-18T03:04:18.993Z,99.99
2018-01-18T03:05:18.948Z,99.99
2018-01-18T03:06:18.908Z,99.99
2018-01-18T03:07:18.869Z,99.99
2018-01-18T03:08:18.827Z,99.99
2018-01-18T03:09:18.786Z,99.99
2018-01-18T03:10:18.748Z,99.99
2018-01-18T03:11:18.704Z,99.99
2018-01-18T03:12:18.667Z,99.99
2018-01-18T03:13:18.628Z,99.99
2018-01-18T03:14:18.587Z,99.99
2018-01-18T03:15:18.543Z,99.99
2018-01-18T03:16:18.504Z,99.99
2018-01-18T03:17:18.489Z,99.99
2018-01-18T03:18:18.422Z,99.99
2018-01-18T03:19:18.386Z,99.99
2018-01-18T03:20:18.340Z,99.99
2018-01-18T03:21:18.300Z,99.99
2018-01-18T03:22:18.259Z,99.99
2018-01-18T03:23:18.222Z,99.99
2018-01-18T03:24:18.186Z,99.99
2018-01-18T03:25:18.138Z,99.99
2018-01-18T03:26:18.098Z,99.99
2018-01-18T03:27:18.059Z,99.99
2018-01-18T03:28:18.019Z,99.99
2018-01-18T03:29:17.976Z,99.99
2018-01-18T03:30:17.940Z,99.99
2018-01-18T03:31:17.898Z,99.99
2018-01-18T03:32:17.860Z,99.99
2018-01-18T03:33:17.813Z,99.99
2018-01-18T03:34:17.797Z,99.99
2018-01-18T03:35:17.749Z,99.99
2018-01-18T03:36:17.691Z,99.99
2018-01-18T03:37:17.659Z,99.99
2018-01-18T03:38:17.612Z,99.99
2018-01-18T03:39:17.572Z,99.99
2018-01-18T03:40:17.534Z,99.99
2018-01-18T03:41:17.506Z,99.99
2018-01-18T03:42:17.446Z,99.99
2018-01-18T03:43:17.407Z,99.99
2018-01-18T03:44:17.365Z,99.99
2018-01-18T03:45:17.326Z,99.99
2018-01-18T03:46:17.297Z,99.99
2018-01-18T03:47:17.248Z,99.99
2018-01-18T03:48:17.200Z,99.99
2018-01-18T03:49:17.162Z,99.99
2018-01-18T03:50:17.141Z,99.99
2018-01-18T03:51:17.080Z,99.99
2018-01-18T03:52:17.041Z,99.99
2018-01-18T03:53:17.004Z,99.99
2018-01-18T03:54:16.969Z,99.99
2018-01-18T03:55:16.926Z,99.99
2018-01-18T03:56:16.907Z,99.99
2018-01-18T03:57:16.833Z,99.99
2018-01-18T03:58:16.813Z,99.99
2018-01-18T03:59:16.754Z,99.99
2018-01-18T04:00:16.711Z,99.99
2018-01-18T04:01:16.705Z,99.99
2018-01-18T04:02:16.657Z,99.99
2018-01-18T04:03:16.595Z,99.99
2018-01-18T04:04:16.548Z,99.99
2018-01-18T04:05:16.526Z,99.99
2018-01-18T04:06:16.478Z,99.99
2018-01-18T04:07:16.428Z,99.99
2018-01-18T04:08:16.384Z,99.99
2018-01-18T04:09:16.353Z,99.99
2018-01-18T04:10:16.306Z,99.99
2018-01-18T04:11:16.308Z,99.99
2018-01-18T04:12:16.244Z,99.99
2018-01-18T04:13:16.215Z,99.99
2018-01-18T04:14:16.150Z,99.99
2018-01-18T04:15:16.100Z,99.99
2018-01-18T04:16:16.057Z,99.99
2018-01-18T04:17:16.046Z,99.99
2018-01-18T04:18:15.992Z,99.99
2018-01-18T04:19:15.969Z,99.99
2018-01-18T04:20:15.916Z,99.99
2018-01-18T04:21:15.852Z,99.99
2018-01-18T04:22:15.816Z,99.99
2018-01-18T04:23:15.772Z,99.99
2018-01-18T04:24:15.730Z,99.99
2018-01-18T04:25:15.719Z,99.99
2018-01-18T04:26:15.647Z,99.99
2018-01-18T04:27:15.645Z,99.99
2018-01-18T04:28:15.566Z,99.99
2018-01-18T04:29:15.525Z,99.99
2018-01-18T04:30:15.483Z,99.99
2018-01-18T04:31:15.445Z,99.99
2018-01-18T04:32:15.424Z,99.99
2018-01-18T04:33:15.361Z,99.99
2018-01-18T04:34:15.324Z,99.99
2018-01-18T04:35:15.293Z,99.99
2018-01-18T04:36:15.241Z,99.99
2018-01-18T04:37:15.200Z,99.99
2018-01-18T04:38:15.158Z,99.99
2018-01-18T04:39:15.116Z,99.99
2018-01-18T04:40:15.079Z,99.99
2018-01-18T04:41:15.036Z,99.99
2018-01-18T04:42:14.994Z,99.99
2018-01-18T04:43:14.954Z,99.99
2018-01-18T04:44:15.475Z,99.99
2018-01-18T04:45:15.475Z,99.99
2018-01-18T04:46:14.832Z,99.99
2018-01-18T04:47:14.806Z,99.99
2018-01-18T04:48:14.750Z,99.99
2018-01-18T04:49:14.711Z,99.99
2018-01-18T04:50:14.669Z,99.99
2018-01-18T04:51:14.628Z,99.99
2018-01-18T04:52:14.614Z,99.99
2018-01-18T04:53:14.548Z,99.99
2018-01-18T04:54:14.505Z,99.99
2018-01-18T04:55:14.469Z,99.99
2018-01-18T04:56:14.426Z,99.99
2018-01-18T04:57:14.385Z,99.99
2018-01-18T04:58:14.349Z,99.99
2018-01-18T04:59:14.303Z,99.99
2018-01-18T05:00:14.258Z,99.99
2018-01-18T05:01:14.221Z,99.99
2018-01-18T05:02:14.179Z,99.99
2018-01-18T05:03:14.140Z,99.99
2018-01-18T05:04:14.099Z,99.99
2018-01-18T05:05:14.060Z,99.99
2018-01-18T05:06:14.023Z,99.99
2018-01-18T05:07:13.977Z,99.99
2018-01-18T05:08:13.959Z,99.99
2018-01-18T05:09:13.899Z,99.99
2018-01-18T05:10:13.856Z,99.99
2018-01-18T05:11:13.820Z,99.99
2018-01-18T05:12:13.774Z,99.99
2018-01-18T05:13:13.733Z,99.99
2018-01-18T05:14:13.692Z,99.99
2018-01-18T05:15:13.679Z,99.99
2018-01-18T05:16:13.615Z,99.99
2018-01-18T05:17:13.576Z,99.99
2018-01-18T05:18:13.547Z,99.99
2018-01-18T05:19:13.491Z,99.99
2018-01-18T05:20:13.452Z,99.99
2018-01-18T05:21:13.410Z,99.99
2018-01-18T05:22:13.371Z,99.99
2018-01-18T05:23:13.333Z,99.99
2018-01-18T05:24:13.290Z,99.99
2018-01-18T05:25:13.255Z,99.99
2018-01-18T05:26:13.210Z,99.99
2018-01-18T05:27:13.193Z,99.99
2018-01-18T05:28:13.128Z,99.99
2018-01-18T05:29:13.094Z,99.99
2018-01-18T05:30:13.052Z,99.99
2018-01-18T05:31:13.011Z,99.99
2018-01-18T05:32:12.970Z,99.99
2018-01-18T05:33:12.931Z,99.99
2018-01-18T05:34:12.889Z,99.99
2018-01-18T05:35:12.849Z,99.99
2018-01-18T05:36:12.809Z,99.99
2018-01-18T05:37:12.770Z,99.99
2018-01-18T05:38:12.730Z,99.99
2018-01-18T05:39:12.689Z,99.99
2018-01-18T05:40:12.652Z,99.99
2018-01-18T05:41:12.612Z,99.99
2018-01-18T05:42:12.578Z,99.99
2018-01-18T05:43:12.533Z,99.99
2018-01-18T05:44:12.512Z,99.99
2018-01-18T05:45:12.452Z,99.99
2018-01-18T05:46:12.416Z,99.99
2018-01-18T05:47:12.377Z,99.99
2018-01-18T05:48:12.333Z,99.99
2018-01-18T05:49:12.296Z,99.99
2018-01-18T05:50:12.302Z,99.99
2018-01-18T05:51:12.217Z,99.99
2018-01-18T05:52:12.177Z,99.99
2018-01-18T05:53:12.137Z,99.99
2018-01-18T05:54:12.097Z,99.99
2018-01-18T05:55:12.059Z,99.99
2018-01-18T05:56:12.019Z,99.99
2018-01-18T05:57:11.976Z,99.99
2018-01-18T05:58:11.938Z,99.99
2018-01-18T05:59:11.908Z,99.99
2018-01-18T06:00:11.863Z,99.99
2018-01-18T06:01:11.821Z,99.99
2018-01-18T06:02:11.783Z,99.99
2018-01-18T06:03:11.861Z,99.99
2018-01-18T06:04:11.706Z,99.99
2018-01-18T06:05:11.666Z,99.99
2018-01-18T06:06:11.625Z,99.99
2018-01-18T06:07:11.589Z,99.99
2018-01-18T06:08:11.550Z,99.99
2018-01-18T06:09:11.510Z,99.99
2018-01-18T06:10:11.470Z,99.99
2018-01-18T06:11:11.429Z,99.99
2018-01-18T06:12:11.419Z,99.99
2018-01-18T06:13:11.355Z,99.99
2018-01-18T06:14:11.313Z,99.99
2018-01-18T06:15:11.276Z,99.99
2018-01-18T06:16:11.236Z,99.99
2018-01-18T06:17:11.200Z,99.99
2018-01-18T06:18:11.159Z,99.99
2018-01-18T06:19:11.120Z,99.99
2018-01-18T06:20:11.083Z,99.99
2018-01-18T06:21:11.042Z,99.99
2018-01-18T06:22:11.001Z,99.99
2018-01-18T06:23:10.964Z,99.99
2018-01-18T06:24:10.925Z,99.99
2018-01-18T06:25:10.887Z,99.99
2018-01-18T06:26:10.848Z,99.99
2018-01-18T06:27:10.809Z,99.99
2018-01-18T06:28:10.770Z,99.99
2018-01-18T06:29:10.729Z,99.99
2018-01-18T06:30:10.696Z,99.99
2018-01-18T06:31:10.655Z,99.99
2018-01-18T06:32:10.614Z,99.99
2018-01-18T06:33:10.576Z,99.99
2018-01-18T06:34:10.536Z,99.99
2018-01-18T06:35:10.499Z,99.99
2018-01-18T06:36:10.461Z,99.99
2018-01-18T06:37:10.420Z,99.99
2018-01-18T06:38:10.384Z,99.99
2018-01-18T06:39:10.345Z,99.99
2018-01-18T06:40:10.306Z,99.99
2018-01-18T06:41:10.264Z,99.99
2018-01-18T06:42:10.228Z,99.99
2018-01-18T06:43:10.190Z,99.99
2018-01-18T06:44:10.152Z,99.99
2018-01-18T06:45:10.115Z,99.99
2018-01-18T06:46:10.075Z,99.99
2018-01-18T06:47:10.034Z,99.99
2018-01-18T06:48:09.999Z,99.99
2018-01-18T06:49:09.958Z,99.99
2018-01-18T06:50:09.919Z,99.99
2018-01-18T06:51:09.885Z,99.99
2018-01-18T06:52:09.844Z,99.99
2018-01-18T06:53:09.806Z,99.99
2018-01-18T06:54:09.768Z,99.99
2018-01-18T06:55:09.731Z,99.99
2018-01-18T06:56:09.691Z,99.99
2018-01-18T06:57:09.651Z,99.99
2018-01-18T06:58:09.614Z,99.99
2018-01-18T06:59:09.577Z,99.99
2018-01-18T07:00:09.544Z,99.99
2018-01-18T07:01:09.502Z,99.99
2018-01-18T07:02:09.461Z,99.99
2018-01-18T07:03:09.423Z,99.99
2018-01-18T07:04:09.387Z,99.99
2018-01-18T07:05:09.617Z,99.99
2018-01-18T07:06:09.347Z,99.99
2018-01-18T07:07:09.271Z,99.99
2018-01-18T07:08:09.236Z,99.99
2018-01-18T07:09:09.196Z,99.99
2018-01-18T07:10:09.159Z,99.99
2018-01-18T07:11:09.120Z,99.99
2018-01-18T07:12:09.082Z,99.99
2018-01-18T07:13:09.042Z,99.99
2018-01-18T07:14:09.012Z,99.99
2018-01-18T07:15:09.019Z,99.99
2018-01-18T07:16:08.930Z,99.99
2018-01-18T07:17:08.890Z,99.99
2018-01-18T07:18:08.855Z,99.99
2018-01-18T07:19:08.816Z,99.99
2018-01-18T07:20:08.778Z,99.99
2018-01-18T07:21:08.740Z,99.99
2018-01-18T07:22:08.702Z,99.99
2018-01-18T07:23:08.664Z,99.99
2018-01-18T07:24:08.627Z,99.99
2018-01-18T07:25:08.589Z,99.99
2018-01-18T07:26:08.551Z,99.99
2018-01-18T07:27:08.514Z,99.99
2018-01-18T07:28:08.475Z,99.99
2018-01-18T07:29:08.437Z,99.99
2018-01-18T07:30:08.403Z,99.99
2018-01-18T07:31:08.359Z,99.99
2018-01-18T07:32:08.324Z,99.99
2018-01-18T07:33:08.286Z,99.99
2018-01-18T07:34:08.247Z,99.99
2018-01-18T07:35:08.209Z,99.99
2018-01-18T07:36:08.172Z,99.99
2018-01-18T07:37:08.131Z,99.99
2018-01-18T07:38:08.097Z,99.99
2018-01-18T07:39:08.061Z,99.99
2018-01-18T07:40:08.023Z,99.99
2018-01-18T07:41:07.983Z,99.99
2018-01-18T07:42:07.942Z,99.99
2018-01-18T07:43:07.911Z,99.99
2018-01-18T07:44:07.871Z,99.99
2018-01-18T07:45:07.828Z,99.99
2018-01-18T07:46:07.793Z,99.99
2018-01-18T07:47:07.759Z,99.99
2018-01-18T07:48:07.719Z,99.99
2018-01-18T07:49:07.681Z,99.99
2018-01-18T07:50:07.642Z,99.99
2018-01-18T07:51:07.605Z,99.99
2018-01-18T07:52:07.568Z,99.99
2018-01-18T07:53:07.556Z,99.99
2018-01-18T07:54:07.492Z,99.99
2018-01-18T07:55:07.453Z,99.99
2018-01-18T07:56:07.415Z,99.99
2018-01-18T07:57:07.377Z,99.99
2018-01-18T07:58:07.340Z,99.99
2018-01-18T07:59:07.302Z,99.99
2018-01-18T08:00:07.266Z,99.99
2018-01-18T08:01:07.226Z,99.99
2018-01-18T08:02:07.187Z,99.99
2018-01-18T08:03:07.152Z,99.99
2018-01-18T08:04:07.112Z,99.99
2018-01-18T08:05:07.074Z,99.99
2018-01-18T08:06:07.036Z,99.99
2018-01-18T08:07:07.002Z,99.99
2018-01-18T08:08:07.488Z,99.99
2018-01-18T08:09:06.924Z,99.99
2018-01-18T08:10:06.887Z,99.99
2018-01-18T08:11:06.849Z,99.99
2018-01-18T08:12:06.814Z,99.99
2018-01-18T08:13:06.775Z,99.99
2018-01-18T08:14:06.740Z,99.99
2018-01-18T08:15:06.698Z,99.99
2018-01-18T08:16:06.665Z,99.99
2018-01-18T08:17:06.626Z,99.99
2018-01-18T08:18:06.590Z,99.99
2018-01-18T08:19:06.552Z,99.99
2018-01-18T08:20:06.514Z,99.99
2018-01-18T08:21:06.478Z,99.99
2018-01-18T08:22:06.443Z,99.99
2018-01-18T08:23:06.404Z,99.99
2018-01-18T08:24:06.372Z,99.99
2018-01-18T08:25:06.337Z,99.99
2018-01-18T08:26:06.296Z,99.99
2018-01-18T08:27:06.262Z,99.99
2018-01-18T08:28:06.227Z,99.99
2018-01-18T08:29:06.191Z,99.99
2018-01-18T08:30:06.157Z,99.99
2018-01-18T08:31:06.123Z,99.99
2018-01-18T08:32:06.092Z,99.99
2018-01-18T08:33:06.054Z,99.99
2018-01-18T08:34:06.022Z,99.99
2018-01-18T08:35:05.984Z,99.99
2018-01-18T08:36:05.949Z,99.99
2018-01-18T08:37:05.914Z,99.99
2018-01-18T08:38:05.886Z,99.99
2018-01-18T08:39:05.842Z,99.99
2018-01-18T08:40:05.808Z,99.99
2018-01-18T08:41:05.776Z,99.99
2018-01-18T08:42:06.557Z,99.99
2018-01-18T08:43:05.707Z,99.99
2018-01-18T08:44:05.671Z,99.99
2018-01-18T08:45:05.635Z,99.99
2018-01-18T08:46:05.609Z,99.99
2018-01-18T08:47:05.569Z,99.99
2018-01-18T08:48:05.534Z,99.99
2018-01-18T08:49:05.502Z,99.99
2018-01-18T08:50:05.468Z,99.99
2018-01-18T08:51:05.884Z,99.99
2018-01-18T08:52:05.403Z,99.99
2018-01-18T08:53:05.368Z,99.99
2018-01-18T08:54:05.393Z,99.99
2018-01-18T08:55:05.302Z,99.99
2018-01-18T08:56:05.264Z,99.99
2018-01-18T08:57:05.233Z,99.99
2018-01-18T08:58:05.204Z,99.99
2018-01-18T08:59:05.165Z,99.99
2018-01-18T09:00:05.134Z,99.99
2018-01-18T09:01:05.098Z,99.99
2018-01-18T09:02:05.066Z,99.99
2018-01-18T09:03:05.031Z,99.99
2018-01-18T09:04:05.001Z,99.99
2018-01-18T09:05:04.965Z,99.99
2018-01-18T09:06:05.190Z,99.99
2018-01-18T09:07:04.899Z,99.99
2018-01-18T09:08:04.868Z,99.99
2018-01-18T09:09:04.834Z,99.85
2018-01-18T09:10:04.800Z,96.51
2018-01-18T09:11:04.769Z,95.17
2018-01-18T09:12:04.734Z,97.17
2018-01-18T09:13:04.701Z,96.56
2018-01-18T09:14:04.666Z,96.98
2018-01-18T09:15:04.630Z,98.56
2018-01-18T09:16:04.599Z,99.99
2018-01-18T09:17:04.562Z,99.99
2018-01-18T09:18:04.525Z,99.99
2018-01-18T09:19:04.495Z,99.99
2018-01-18T09:20:04.458Z,98.42
2018-01-18T09:21:04.425Z,99.08
2018-01-18T09:22:04.387Z,98.70
2018-01-18T09:23:04.353Z,98.03
2018-01-18T09:24:04.324Z,96.61
2018-01-18T09:25:04.288Z,98.70
2018-01-18T09:26:04.250Z,95.75
2018-01-18T09:27:04.216Z,94.51
2018-01-18T09:28:04.215Z,94.12
2018-01-18T09:29:04.143Z,91.55
2018-01-18T09:30:04.112Z,89.45
2018-01-18T09:31:04.079Z,90.88
2018-01-18T09:32:04.044Z,89.36
2018-01-18T09:33:04.012Z,87.83
2018-01-18T09:34:03.976Z,84.30
2018-01-18T09:35:03.944Z,84.01
2018-01-18T09:36:03.911Z,84.01
2018-01-18T09:37:03.873Z,83.54
2018-01-18T09:38:03.847Z,82.97
2018-01-18T09:39:03.806Z,80.73
2018-01-18T09:40:03.775Z,81.12
2018-01-18T09:41:03.737Z,81.12
2018-01-18T09:42:03.705Z,82.35
2018-01-18T09:43:03.670Z,82.92
2018-01-18T09:44:03.633Z,80.92
2018-01-18T09:45:03.599Z,78.06
2018-01-18T09:46:03.568Z,80.16
2018-01-18T09:47:03.530Z,81.12
2018-01-18T09:48:03.495Z,79.49
2018-01-18T09:49:03.464Z,79.30
2018-01-18T09:50:03.425Z,77.40
2018-01-18T09:51:03.389Z,75.87
2018-01-18T09:52:03.358Z,76.82
2018-01-18T09:53:03.326Z,77.30
2018-01-18T09:54:03.286Z,74.35
2018-01-18T09:55:03.249Z,74.02
2018-01-18T09:56:03.212Z,72.72
2018-01-18T09:57:03.179Z,72.63
2018-01-18T09:58:03.143Z,74.40
2018-01-18T09:59:03.111Z,75.64
2018-01-18T10:00:03.073Z,75.55
2018-01-18T10:01:03.037Z,74.54
2018-01-18T10:02:03.001Z,73.77
2018-01-18T10:03:02.967Z,75.20
2018-01-18T10:04:02.930Z,73.83
2018-01-18T10:05:02.919Z,74.02
2018-01-18T10:06:02.860Z,73.93
2018-01-18T10:07:02.825Z,75.55
2018-01-18T10:08:02.789Z,75.26
2018-01-18T10:09:02.799Z,75.64
2018-01-18T10:10:02.736Z,73.65
2018-01-18T10:11:02.684Z,74.02
2018-01-18T10:12:02.650Z,75.55
2018-01-18T10:13:02.621Z,74.60
2018-01-18T10:14:02.580Z,74.31
2018-01-18T10:15:02.543Z,73.93
2018-01-18T10:16:02.510Z,73.74
2018-01-18T10:17:02.471Z,74.02
2018-01-18T10:18:02.436Z,73.65
2018-01-18T10:19:02.399Z,73.07
2018-01-18T10:20:02.388Z,74.98
2018-01-18T10:21:02.329Z,75.89
2018-01-18T10:22:02.295Z,75.51
2018-01-18T10:23:02.257Z,74.37
2018-01-18T10:24:02.221Z,73.83
2018-01-18T10:25:02.193Z,73.45
2018-01-18T10:26:02.152Z,72.60
2018-01-18T10:27:02.117Z,72.60
2018-01-18T10:28:02.078Z,70.12
2018-01-18T10:29:02.043Z,69.32
2018-01-18T10:30:02.023Z,69.89
2018-01-18T10:31:01.970Z,68.94
2018-01-18T10:32:01.936Z,69.04
2018-01-18T10:33:01.898Z,68.02
2018-01-18T10:34:01.861Z,66.44
2018-01-18T10:35:01.842Z,65.86
2018-01-18T10:36:01.795Z,65.04
2018-01-18T10:37:01.759Z,64.28
2018-01-18T10:38:01.729Z,62.21
2018-01-18T10:39:01.697Z,61.54
2018-01-18T10:40:01.667Z,60.42
2018-01-18T10:41:01.636Z,58.80
2018-01-18T10:42:01.608Z,58.80
2018-01-18T10:43:01.578Z,58.33
2018-01-18T10:44:01.553Z,58.33
2018-01-18T10:45:01.528Z,58.42
2018-01-18T10:46:01.497Z,57.94
2018-01-18T10:47:01.473Z,57.94
2018-01-18T10:48:01.446Z,58.80
2018-01-18T10:49:01.421Z,58.93
2018-01-18T10:50:01.394Z,58.54
2018-01-18T10:51:01.369Z,58.14
2018-01-18T10:52:01.347Z,58.70
2018-01-18T10:53:01.321Z,58.87
2018-01-18T10:54:01.294Z,58.36
2018-01-18T10:55:01.265Z,60.33
2018-01-18T10:56:01.237Z,61.29
2018-01-18T10:57:01.209Z,62.88
2018-01-18T10:58:01.182Z,63.54
2018-01-18T10:59:01.151Z,64.47
2018-01-18T11:00:01.122Z,65.03
2018-01-18T11:01:01.089Z,66.46
2018-01-18T11:02:01.057Z,67.10
2018-01-18T11:03:01.028Z,66.72
2018-01-18T11:04:00.995Z,67.95
2018-01-18T11:05:00.961Z,67.95
2018-01-18T11:06:00.929Z,68.52
2018-01-18T11:07:00.896Z,68.52
2018-01-18T11:08:00.862Z,68.81
2018-01-18T11:09:00.835Z,70.68
2018-01-18T11:10:00.793Z,71.34
2018-01-18T11:11:00.757Z,72.01
2018-01-18T11:12:00.723Z,72.86
2018-01-18T11:13:00.689Z,73.44
2018-01-18T11:14:00.653Z,74.39
2018-01-18T11:15:00.632Z,74.77
2018-01-18T11:16:00.581Z,75.68
2018-01-18T11:17:00.557Z,75.78
2018-01-18T11:18:00.510Z,76.82
2018-01-18T11:19:00.475Z,78.25
2018-01-18T11:20:00.441Z,78.25
2018-01-18T11:21:00.403Z,78.38
2018-01-18T11:22:00.375Z,77.87
2018-01-18T11:23:00.332Z,77.68
2018-01-18T11:24:00.296Z,78.44
2018-01-18T11:25:00.260Z,78.48
2018-01-18T11:26:00.224Z,78.77
2018-01-18T11:27:00.189Z,78.19
2018-01-18T11:28:00.154Z,77.91
2018-01-18T11:29:00.118Z,78.48
2018-01-18T11:30:00.079Z,77.19
2018-01-18T11:31:00.046Z,75.99
2018-01-18T11:32:00.019Z,73.45
2018-01-18T11:32:59.987Z,70.02
2018-01-18T11:33:59.967Z,69.20
2018-01-18T11:34:59.916Z,67.20
2018-01-18T11:35:59.884Z,65.23
2018-01-18T11:36:59.853Z,66.53
2018-01-18T11:37:59.822Z,65.58
2018-01-18T11:38:59.793Z,64.65
2018-01-18T11:39:59.782Z,62.65
2018-01-18T11:40:59.732Z,61.60
2018-01-18T11:41:59.703Z,60.58
2018-01-18T11:42:59.676Z,59.82
2018-01-18T11:43:59.651Z,60.02
2018-01-18T11:44:59.623Z,58.87
2018-01-18T11:45:59.597Z,58.68
2018-01-18T11:46:59.569Z,59.12
2018-01-18T11:47:59.545Z,60.17
2018-01-18T11:48:59.516Z,61.00
2018-01-18T11:49:59.490Z,61.32
2018-01-18T11:50:59.466Z,61.32
2018-01-18T11:51:59.438Z,59.73
2018-01-18T11:52:59.410Z,60.27
2018-01-18T11:53:59.386Z,58.77
2018-01-18T11:54:59.361Z,57.92
2018-01-18T11:55:59.339Z,58.01
2018-01-18T11:56:59.308Z,57.43
2018-01-18T11:57:59.284Z,57.82
2018-01-18T11:58:59.260Z,58.58
2018-01-18T11:59:59.254Z,58.58
2018-01-18T12:00:59.209Z,58.20
2018-01-18T12:01:59.185Z,57.85
2018-01-18T12:02:59.158Z,57.09
2018-01-18T12:03:59.136Z,56.70
2018-01-18T12:04:59.112Z,56.51
2018-01-18T12:05:59.089Z,56.13
2018-01-18T12:06:59.066Z,55.55
2018-01-18T12:07:59.039Z,56.13
2018-01-18T12:08:59.013Z,56.23
2018-01-18T12:09:58.989Z,55.36
2018-01-18T12:10:58.967Z,56.20
2018-01-18T12:11:58.941Z,57.34
2018-01-18T12:12:58.916Z,57.22
2018-01-18T12:13:58.895Z,58.14
2018-01-18T12:14:58.866Z,60.49
2018-01-18T12:15:58.839Z,62.12
2018-01-18T12:16:58.815Z,63.54
2018-01-18T12:17:58.787Z,63.35
2018-01-18T12:18:58.759Z,63.70
2018-01-18T12:19:58.733Z,65.23
2018-01-18T12:20:59.404Z,66.18
2018-01-18T12:21:58.671Z,66.75
2018-01-18T12:22:58.644Z,66.75
2018-01-18T12:23:58.614Z,68.08
2018-01-18T12:24:58.580Z,66.97
2018-01-18T12:25:58.552Z,65.42
2018-01-18T12:26:58.522Z,65.51
2018-01-18T12:27:58.490Z,67.47
2018-01-18T12:28:58.462Z,68.15
2018-01-18T12:29:58.434Z,69.95
2018-01-18T12:30:58.400Z,71.00
2018-01-18T12:31:58.365Z,70.87
2018-01-18T12:32:58.353Z,71.34
2018-01-18T12:33:58.303Z,72.96
2018-01-18T12:34:58.266Z,71.82
2018-01-18T12:35:58.233Z,71.72
2018-01-18T12:36:58.204Z,72.39
2018-01-18T12:37:58.168Z,71.72
2018-01-18T12:38:58.135Z,70.97
2018-01-18T12:39:58.101Z,70.58
2018-01-18T12:40:58.770Z,69.92
2018-01-18T12:41:58.038Z,70.97
2018-01-18T12:42:58.003Z,72.01
2018-01-18T12:43:57.970Z,72.20
2018-01-18T12:44:57.932Z,71.82
2018-01-18T12:45:57.904Z,71.72
2018-01-18T12:46:57.865Z,72.55
2018-01-18T12:47:57.832Z,73.49
2018-01-18T12:48:57.793Z,74.16
2018-01-18T12:49:57.759Z,74.54
2018-01-18T12:50:57.727Z,76.25
2018-01-18T12:51:57.692Z,75.59